createdAt,value
2023-02-03T00:00:48.029Z,5.47
2023-02-03T00:03:15.823Z,5.92
2023-02-03T00:05:43.016Z,5.68
2023-02-03T00:08:10.132Z,6.32
2023-02-03T00:10:37.697Z,6.35
2023-02-03T00:13:04.880Z,5.87
2023-02-03T00:15:32.123Z,6.16
2023-02-03T00:17:59.521Z,6.29
2023-02-03T00:20:27.310Z,6.43
2023-02-03T00:22:54.683Z,6.32
2023-02-03T00:25:22.137Z,5.77
2023-02-03T00:27:49.308Z,5.73
2023-02-03T00:30:16.583Z,5.21
2023-02-03T00:32:44.099Z,5.87
2023-02-03T00:35:12.026Z,6.59
2023-02-03T00:37:39.156Z,6.49
2023-02-03T00:40:07.604Z,5.92
2023-02-03T00:42:35.536Z,6.42
2023-02-03T00:45:02.751Z,6.33
2023-02-03T00:47:30.149Z,6.82
2023-02-03T00:49:58.065Z,6.31
2023-02-03T00:52:25.386Z,6.72
2023-02-03T00:54:52.782Z,7.26
2023-02-03T00:57:19.935Z,7.17
2023-02-03T00:59:47.084Z,7.22
2023-02-03T01:02:14.635Z,6.33
2023-02-03T01:04:41.811Z,6.63
2023-02-03T01:07:09.181Z,6.98
2023-02-03T01:09:36.973Z,6.20
2023-02-03T01:12:04.729Z,6.53
2023-02-03T01:14:32.037Z,5.89
2023-02-03T01:17:00.198Z,6.70
2023-02-03T01:19:27.411Z,7.00
2023-02-03T01:21:54.520Z,6.86
2023-02-03T01:24:22.399Z,7.40
2023-02-03T01:26:49.515Z,7.23
2023-02-03T01:29:16.600Z,7.59
2023-02-03T01:31:44.130Z,8.29
2023-02-03T01:34:12.214Z,8.32
2023-02-03T01:36:39.297Z,8.36
2023-02-03T01:39:06.750Z,8.70
2023-02-03T01:41:34.953Z,8.59
2023-02-03T01:44:02.386Z,8.70
2023-02-03T01:46:39.944Z,8.46
2023-02-03T01:49:06.979Z,8.40
2023-02-03T01:51:34.426Z,8.28
2023-02-03T01:54:01.572Z,8.22
2023-02-03T01:56:29.159Z,8.53
2023-02-03T01:58:58.980Z,8.27
2023-02-03T02:01:26.296Z,8.54
2023-02-03T02:03:54.634Z,8.28
2023-02-03T02:06:21.722Z,8.26
2023-02-03T02:08:49.431Z,8.46
2023-02-03T02:11:21.534Z,8.57
2023-02-03T02:13:49.246Z,8.23
2023-02-03T02:16:16.668Z,8.44
2023-02-03T02:18:47.000Z,8.34
2023-02-03T02:21:37.434Z,8.37
2023-02-03T02:24:22.938Z,8.35
2023-02-03T02:27:09.049Z,8.40
2023-02-03T02:29:43.233Z,8.52
2023-02-03T02:32:31.156Z,8.24
2023-02-03T02:35:03.347Z,7.93
2023-02-03T02:37:42.903Z,7.88
2023-02-03T02:40:10.521Z,7.53
2023-02-03T02:42:39.840Z,7.29
2023-02-03T02:45:36.452Z,7.79
2023-02-03T02:48:10.583Z,7.64
2023-02-03T02:50:39.434Z,7.37
2023-02-03T02:53:06.830Z,7.84
2023-02-03T02:55:34.249Z,7.90
2023-02-03T02:58:04.377Z,7.44
2023-02-03T03:00:32.070Z,7.58
2023-02-03T03:03:07.053Z,7.53
2023-02-03T03:05:34.545Z,7.01
2023-02-03T03:08:02.962Z,7.18
2023-02-03T03:10:30.637Z,7.44
2023-02-03T03:12:59.483Z,7.73
2023-02-03T03:15:27.923Z,7.83
2023-02-03T03:17:56.857Z,7.49
2023-02-03T03:20:25.639Z,7.97
2023-02-03T03:22:55.158Z,7.73
2023-02-03T03:25:24.575Z,7.35
2023-02-03T03:27:53.765Z,7.46
2023-02-03T03:30:22.748Z,7.48
2023-02-03T03:32:50.085Z,6.88
2023-02-03T03:35:17.483Z,7.40
2023-02-03T03:37:45.693Z,7.11
2023-02-03T03:40:12.972Z,7.41
2023-02-03T03:42:49.525Z,7.38
2023-02-03T03:45:20.775Z,7.56
2023-02-03T03:47:53.041Z,7.53
2023-02-03T03:50:22.083Z,7.25
2023-02-03T03:52:49.627Z,7.38
2023-02-03T03:55:16.988Z,7.65
2023-02-03T03:57:53.150Z,7.78
2023-02-03T04:00:20.539Z,7.60
2023-02-03T04:02:49.366Z,7.71
2023-02-03T04:05:16.524Z,7.62
2023-02-03T04:07:44.970Z,8.27
2023-02-03T04:10:22.540Z,8.43
2023-02-03T04:12:49.621Z,8.55
2023-02-03T04:15:17.008Z,8.55
2023-02-03T04:17:44.149Z,8.51
2023-02-03T04:20:11.618Z,8.50
2023-02-03T04:22:39.115Z,8.00
2023-02-03T04:25:06.379Z,8.25
2023-02-03T04:27:33.963Z,7.43
2023-02-03T04:30:01.388Z,7.42
2023-02-03T04:32:28.584Z,7.49
2023-02-03T04:34:55.689Z,7.44
2023-02-03T04:37:23.151Z,7.40
2023-02-03T04:39:52.170Z,7.55
2023-02-03T04:42:19.401Z,7.67
2023-02-03T04:44:46.796Z,6.72
2023-02-03T04:47:14.080Z,7.66
2023-02-03T04:49:41.201Z,7.17
2023-02-03T04:52:08.809Z,7.30
2023-02-03T04:54:36.120Z,7.58
2023-02-03T04:57:03.572Z,8.05
2023-02-03T04:59:30.975Z,8.05
2023-02-03T05:01:58.281Z,7.89
2023-02-03T05:04:25.454Z,8.05
2023-02-03T05:06:52.835Z,8.47
2023-02-03T05:09:20.016Z,8.57
2023-02-03T05:11:47.214Z,8.31
2023-02-03T05:14:14.606Z,8.22
2023-02-03T05:16:42.005Z,8.22
2023-02-03T05:19:09.166Z,8.43
2023-02-03T05:21:36.610Z,8.24
2023-02-03T05:24:06.917Z,8.20
2023-02-03T05:26:34.763Z,8.12
2023-02-03T05:29:02.402Z,8.21
2023-02-03T05:31:29.608Z,8.28
2023-02-03T05:33:56.774Z,8.22
2023-02-03T05:36:24.234Z,8.54
2023-02-03T05:38:51.379Z,8.14
2023-02-03T05:41:37.160Z,8.23
2023-02-03T05:44:04.621Z,8.35
2023-02-03T05:46:31.784Z,8.35
2023-02-03T05:48:58.939Z,8.61
2023-02-03T05:51:26.431Z,8.58
2023-02-03T05:53:53.814Z,8.84
2023-02-03T05:56:20.977Z,8.81
2023-02-03T05:58:48.456Z,8.68
2023-02-03T06:01:15.580Z,8.97
2023-02-03T06:03:45.802Z,9.07
2023-02-03T06:06:13.413Z,9.27
2023-02-03T06:08:40.557Z,9.02
2023-02-03T06:11:07.966Z,9.14
2023-02-03T06:13:35.188Z,9.29
2023-02-03T06:16:02.344Z,9.29
2023-02-03T06:18:29.938Z,9.09
2023-02-03T06:20:57.116Z,9.18
2023-02-03T06:23:24.272Z,9.27
2023-02-03T06:25:52.023Z,9.17
2023-02-03T06:28:19.355Z,8.75
2023-02-03T06:30:49.514Z,9.08
2023-02-03T06:33:16.944Z,9.16
2023-02-03T06:35:44.087Z,9.17
2023-02-03T06:38:11.282Z,9.03
2023-02-03T06:40:38.715Z,8.55
2023-02-03T06:43:05.986Z,8.80
2023-02-03T06:45:33.157Z,8.90
2023-02-03T06:48:00.607Z,8.65
2023-02-03T06:50:28.029Z,8.40
2023-02-03T06:52:55.321Z,8.60
2023-02-03T06:55:22.662Z,8.38
2023-02-03T06:57:49.818Z,8.44
2023-02-03T07:00:25.463Z,8.63
2023-02-03T07:02:53.614Z,8.77
2023-02-03T07:05:21.206Z,8.85
2023-02-03T07:07:48.383Z,8.89
2023-02-03T07:10:15.878Z,8.93
2023-02-03T07:12:43.184Z,9.06
2023-02-03T07:15:10.957Z,9.10
2023-02-03T07:17:38.326Z,9.09
2023-02-03T07:20:06.097Z,9.17
2023-02-03T07:22:33.247Z,9.21
2023-02-03T07:25:00.650Z,8.84
2023-02-03T07:27:29.699Z,9.05
2023-02-03T07:29:56.800Z,9.12
2023-02-03T07:32:24.212Z,8.91
2023-02-03T07:34:51.328Z,9.17
2023-02-03T07:37:18.456Z,9.05
2023-02-03T07:39:46.213Z,9.27
2023-02-03T07:42:13.408Z,8.86
2023-02-03T07:44:43.606Z,9.00
2023-02-03T07:47:12.519Z,9.17
2023-02-03T07:49:39.969Z,9.36
2023-02-03T07:52:07.135Z,9.17
2023-02-03T07:54:34.482Z,9.29
2023-02-03T07:57:01.663Z,9.35
2023-02-03T07:59:28.821Z,9.48
2023-02-03T08:01:56.393Z,9.30
2023-02-03T08:04:24.413Z,9.32
2023-02-03T08:06:51.610Z,9.24
2023-02-03T08:09:18.760Z,9.35
2023-02-03T08:11:46.235Z,9.30
2023-02-03T08:14:13.307Z,9.32
2023-02-03T08:16:40.447Z,9.43
2023-02-03T08:19:07.847Z,9.56
2023-02-03T08:21:35.806Z,9.08
2023-02-03T08:24:02.892Z,9.46
2023-02-03T08:26:30.310Z,9.33
2023-02-03T08:28:57.452Z,9.25
2023-02-03T08:31:24.724Z,9.30
2023-02-03T08:33:52.242Z,9.43
2023-02-03T08:36:19.380Z,9.36
2023-02-03T08:38:46.535Z,9.24
2023-02-03T08:41:16.076Z,9.10
2023-02-03T08:43:43.646Z,8.96
2023-02-03T08:46:11.775Z,8.99
2023-02-03T08:48:39.382Z,8.82
2023-02-03T08:51:09.907Z,8.88
2023-02-03T08:53:37.065Z,8.63
2023-02-03T08:56:05.635Z,8.67
2023-02-03T08:58:32.788Z,8.55
2023-02-03T09:01:25.972Z,8.38
2023-02-03T09:03:53.527Z,8.13
2023-02-03T09:06:22.788Z,7.00
2023-02-03T09:08:50.967Z,7.57
2023-02-03T09:11:18.535Z,7.44
2023-02-03T09:13:46.069Z,7.52
2023-02-03T09:16:13.636Z,7.97
2023-02-03T09:18:41.118Z,8.15
2023-02-03T09:21:08.653Z,8.30
2023-02-03T09:23:35.975Z,8.57
2023-02-03T09:26:04.182Z,8.69
2023-02-03T09:28:31.614Z,8.60
2023-02-03T09:31:02.267Z,8.71
2023-02-03T09:33:29.771Z,8.72
2023-02-03T09:35:57.354Z,8.89
2023-02-03T09:38:24.648Z,9.00
2023-02-03T09:40:59.998Z,9.00
2023-02-03T09:43:55.063Z,8.81
2023-02-03T09:46:23.057Z,9.00
2023-02-03T09:48:55.166Z,8.78
2023-02-03T09:51:23.555Z,8.60
2023-02-03T09:54:13.945Z,8.30
2023-02-03T09:56:41.457Z,7.90
2023-02-03T09:59:08.660Z,8.06
2023-02-03T10:01:41.407Z,8.15
2023-02-03T10:04:15.223Z,8.34
2023-02-03T10:06:43.835Z,8.44
2023-02-03T10:09:14.167Z,8.52
2023-02-03T10:11:49.801Z,7.96
2023-02-03T10:14:21.355Z,7.42
2023-02-03T10:16:54.484Z,7.46
2023-02-03T10:19:23.300Z,7.22
2023-02-03T10:21:52.144Z,6.47
2023-02-03T10:24:20.511Z,6.57
2023-02-03T10:26:47.970Z,6.16
2023-02-03T10:29:32.555Z,6.39
2023-02-03T10:32:00.510Z,6.16
2023-02-03T10:34:27.887Z,5.37
2023-02-03T10:36:57.897Z,5.94
2023-02-03T10:39:30.611Z,5.60
2023-02-03T10:41:57.860Z,5.92
2023-02-03T10:44:26.519Z,5.33
2023-02-03T10:46:53.960Z,5.60
2023-02-03T10:49:22.418Z,5.47
2023-02-03T10:51:50.870Z,5.82
2023-02-03T10:54:34.560Z,6.47
2023-02-03T10:57:03.731Z,6.49
2023-02-03T10:59:31.795Z,5.47
2023-02-03T11:01:59.052Z,5.98
2023-02-03T11:04:27.603Z,6.27
2023-02-03T11:07:04.171Z,6.80
2023-02-03T11:09:41.432Z,7.35
2023-02-03T11:12:13.292Z,7.66
2023-02-03T11:14:44.433Z,6.15
2023-02-03T11:17:19.043Z,5.37
2023-02-03T11:19:46.902Z,6.24
2023-02-03T11:22:14.885Z,6.91
2023-02-03T11:24:42.124Z,7.52
2023-02-03T11:27:16.176Z,7.66
2023-02-03T11:29:44.515Z,6.94
2023-02-03T11:32:27.332Z,5.30
2023-02-03T11:34:58.129Z,5.38
2023-02-03T11:37:26.060Z,4.26
2023-02-03T11:40:18.098Z,3.57
2023-02-03T11:42:51.480Z,3.73
2023-02-03T11:45:18.628Z,3.85
2023-02-03T11:47:50.097Z,4.14
2023-02-03T11:50:19.714Z,2.70
2023-02-03T11:52:59.281Z,3.40
2023-02-03T11:55:33.054Z,4.12
2023-02-03T11:58:06.495Z,4.29
2023-02-03T12:00:36.648Z,4.39
2023-02-03T12:03:04.103Z,4.82
2023-02-03T12:05:37.312Z,4.74
2023-02-03T12:08:16.828Z,4.93
2023-02-03T12:10:43.969Z,5.18
2023-02-03T12:13:12.265Z,5.53
2023-02-03T12:15:39.408Z,6.18
2023-02-03T12:18:06.529Z,5.99
2023-02-03T12:20:52.608Z,5.81
2023-02-03T12:23:38.822Z,6.26
2023-02-03T12:26:25.633Z,5.95
2023-02-03T12:28:58.147Z,6.35
2023-02-03T12:31:38.135Z,6.19
2023-02-03T12:34:19.350Z,6.58
2023-02-03T12:36:48.688Z,6.34
2023-02-03T12:39:18.194Z,5.52
2023-02-03T12:41:48.982Z,6.01
2023-02-03T12:44:18.519Z,6.69
2023-02-03T12:46:48.546Z,6.74
2023-02-03T12:49:18.825Z,7.44
2023-02-03T12:51:49.061Z,7.73
2023-02-03T12:54:22.243Z,7.87
2023-02-03T12:56:49.694Z,7.53
2023-02-03T12:59:18.662Z,7.41
2023-02-03T13:01:48.251Z,7.38
2023-02-03T13:04:21.425Z,7.38
2023-02-03T13:06:50.311Z,6.59
2023-02-03T13:09:23.949Z,6.82
2023-02-03T13:11:54.159Z,7.32
2023-02-03T13:14:41.292Z,7.37
2023-02-03T13:17:10.943Z,7.08
2023-02-03T13:19:49.400Z,7.74
2023-02-03T13:22:17.347Z,5.81
2023-02-03T13:24:49.041Z,7.05
2023-02-03T13:27:22.451Z,7.53
2023-02-03T13:30:02.495Z,7.57
2023-02-03T13:32:34.165Z,5.92
2023-02-03T13:35:01.597Z,5.86
2023-02-03T13:37:31.975Z,6.64
2023-02-03T13:40:06.018Z,6.72
2023-02-03T13:42:41.003Z,7.09
2023-02-03T13:45:28.566Z,6.39
2023-02-03T13:47:57.071Z,6.52
2023-02-03T13:50:25.174Z,6.40
2023-02-03T13:52:57.249Z,5.73
2023-02-03T13:55:33.890Z,6.08
2023-02-03T13:58:01.085Z,6.80
2023-02-03T14:00:44.028Z,6.18
2023-02-03T14:03:18.280Z,6.43
2023-02-03T14:05:49.193Z,6.10
2023-02-03T14:08:26.017Z,6.45
2023-02-03T14:11:11.632Z,6.70
2023-02-03T14:13:39.095Z,5.81
2023-02-03T14:16:23.577Z,6.43
2023-02-03T14:18:51.215Z,5.77
2023-02-03T14:21:19.729Z,6.64
2023-02-03T14:23:51.588Z,6.79
2023-02-03T14:26:42.510Z,6.18
2023-02-03T14:29:10.949Z,6.23
2023-02-03T14:31:57.536Z,6.13
2023-02-03T14:34:43.638Z,5.72
2023-02-03T14:37:11.463Z,5.88
2023-02-03T14:39:57.761Z,5.90
2023-02-03T14:42:36.851Z,6.44
2023-02-03T14:45:04.123Z,5.80
2023-02-03T14:47:38.548Z,6.10
2023-02-03T14:50:09.456Z,5.73
2023-02-03T14:52:41.610Z,5.94
2023-02-03T14:55:08.938Z,6.29
2023-02-03T14:57:39.095Z,6.02
2023-02-03T15:00:06.386Z,6.18
2023-02-03T15:02:33.981Z,6.36
2023-02-03T15:05:14.028Z,6.31
2023-02-03T15:07:49.271Z,6.33
2023-02-03T15:10:16.790Z,6.82
2023-02-03T15:12:45.120Z,7.53
2023-02-03T15:15:13.363Z,7.33
2023-02-03T15:17:40.967Z,7.47
2023-02-03T15:20:20.466Z,6.83
2023-02-03T15:22:48.047Z,7.48
2023-02-03T15:25:19.392Z,7.34
2023-02-03T15:27:46.603Z,7.07
2023-02-03T15:30:14.838Z,7.61
2023-02-03T15:32:43.308Z,7.13
2023-02-03T15:35:11.690Z,7.18
2023-02-03T15:37:46.589Z,7.80
2023-02-03T15:40:13.841Z,7.45
2023-02-03T15:42:44.786Z,7.85
2023-02-03T15:45:12.135Z,7.81
2023-02-03T15:47:40.914Z,7.82
2023-02-03T15:50:15.334Z,8.09
2023-02-03T15:52:42.519Z,8.26
2023-02-03T15:55:17.775Z,7.98
2023-02-03T15:57:47.178Z,8.25
2023-02-03T16:00:26.330Z,7.69
2023-02-03T16:02:53.909Z,7.68
2023-02-03T16:05:28.603Z,7.95
2023-02-03T16:07:56.307Z,7.73
2023-02-03T16:10:28.965Z,8.31
2023-02-03T16:13:15.148Z,8.29
2023-02-03T16:15:42.363Z,8.05
2023-02-03T16:18:13.133Z,8.30
2023-02-03T16:20:42.799Z,8.23
2023-02-03T16:23:20.484Z,8.27
2023-02-03T16:26:08.099Z,8.24
2023-02-03T16:28:54.454Z,7.54
2023-02-03T16:31:40.348Z,7.07
2023-02-03T16:34:34.156Z,7.24
2023-02-03T16:37:20.274Z,6.91
2023-02-03T16:40:06.417Z,6.90
2023-02-03T16:42:56.792Z,6.81
2023-02-03T16:45:43.165Z,6.82
2023-02-03T16:48:29.852Z,7.12
2023-02-03T16:50:59.617Z,6.84
2023-02-03T16:53:28.925Z,6.58
2023-02-03T16:55:56.880Z,6.61
2023-02-03T16:58:24.310Z,6.65
2023-02-03T17:00:52.146Z,6.12
2023-02-03T17:03:23.636Z,6.46
2023-02-03T17:05:51.217Z,6.31
2023-02-03T17:08:19.323Z,6.68
2023-02-03T17:10:48.081Z,6.77
2023-02-03T17:13:15.788Z,6.87
2023-02-03T17:15:43.975Z,7.05
2023-02-03T17:18:11.616Z,6.82
2023-02-03T17:20:38.944Z,6.67
2023-02-03T17:23:06.174Z,6.67
2023-02-03T17:25:35.948Z,6.98
2023-02-03T17:28:03.849Z,7.08
2023-02-03T17:30:35.152Z,7.09
2023-02-03T17:33:03.117Z,7.03
2023-02-03T17:35:30.885Z,6.61
2023-02-03T17:37:58.575Z,6.26
2023-02-03T17:54:16.715Z,7.17
2023-02-03T17:56:47.477Z,6.63
2023-02-03T17:59:15.022Z,6.22
2023-02-03T18:01:42.518Z,6.39
2023-02-03T18:04:10.581Z,6.38
2023-02-03T18:06:38.025Z,6.87
2023-02-03T18:09:06.843Z,6.92
2023-02-03T18:11:35.137Z,6.97
2023-02-03T18:14:02.927Z,7.37
2023-02-03T18:16:33.104Z,7.26
2023-02-03T18:19:01.237Z,7.70
2023-02-03T18:21:28.637Z,7.72
2023-02-03T18:24:01.530Z,7.54
2023-02-03T18:26:32.502Z,7.65
2023-02-03T18:28:59.922Z,7.96
2023-02-03T18:31:27.337Z,7.99
2023-02-03T18:33:55.145Z,8.20
2023-02-03T18:36:22.645Z,8.42
2023-02-03T18:38:50.053Z,8.44
2023-02-03T18:41:18.781Z,8.55
2023-02-03T18:43:46.866Z,8.38
2023-02-03T18:46:16.836Z,8.52
2023-02-03T18:48:44.564Z,8.60
2023-02-03T18:51:13.302Z,8.71
2023-02-03T18:53:40.711Z,8.97
2023-02-03T18:56:09.486Z,9.07
2023-02-03T18:58:37.234Z,9.08
2023-02-03T19:01:04.759Z,8.42
2023-02-03T19:03:32.475Z,8.25
2023-02-03T19:05:59.904Z,8.16
2023-02-03T19:08:27.240Z,7.68
2023-02-03T19:10:55.070Z,7.26
2023-02-03T19:13:22.483Z,7.08
2023-02-03T19:15:49.868Z,7.00
2023-02-03T19:18:17.514Z,7.13
2023-02-03T19:20:44.988Z,7.40
2023-02-03T19:23:12.467Z,7.05
2023-02-03T19:25:40.165Z,7.43
2023-02-03T19:28:14.352Z,7.88
2023-02-03T19:30:45.015Z,7.93
2023-02-03T19:33:12.474Z,7.38
2023-02-03T19:35:40.798Z,7.09
2023-02-03T19:38:08.440Z,7.19
2023-02-03T19:40:35.775Z,7.31
2023-02-03T19:43:04.997Z,8.00
2023-02-03T19:45:32.661Z,7.67
2023-02-03T19:48:00.008Z,7.85
2023-02-03T19:50:27.463Z,7.71
2023-02-03T19:52:55.359Z,8.06
2023-02-03T19:55:22.725Z,7.65
2023-02-03T19:57:50.126Z,7.06
2023-02-03T20:00:17.951Z,7.50
2023-02-03T20:02:46.076Z,7.69
2023-02-03T20:05:13.513Z,7.03
2023-02-03T20:07:42.369Z,7.53
2023-02-03T20:10:10.234Z,6.99
2023-02-03T20:12:37.681Z,6.75
2023-02-03T20:15:05.355Z,6.58
2023-02-03T20:17:33.213Z,6.64
2023-02-03T20:20:00.673Z,6.76
2023-02-03T20:22:27.885Z,6.57
2023-02-03T20:24:55.470Z,7.18
2023-02-03T20:27:22.906Z,7.13
2023-02-03T20:29:50.683Z,7.13
2023-02-03T20:32:18.324Z,6.98
2023-02-03T20:34:46.358Z,7.01
2023-02-03T20:37:13.743Z,7.36
2023-02-03T20:39:41.286Z,7.63
2023-02-03T20:42:16.635Z,7.56
2023-02-03T20:44:44.653Z,7.05
2023-02-03T20:47:12.354Z,6.66
2023-02-03T20:49:39.977Z,7.07
2023-02-03T20:52:11.406Z,7.26
2023-02-03T20:54:39.408Z,6.73
2023-02-03T20:57:17.348Z,7.02
2023-02-03T20:59:45.055Z,7.34
2023-02-03T21:02:22.832Z,7.04
2023-02-03T21:04:57.700Z,7.34
2023-02-03T21:07:30.050Z,7.50
2023-02-03T21:09:58.493Z,8.12
2023-02-03T21:12:26.799Z,8.26
2023-02-03T21:14:55.068Z,8.35
2023-02-03T21:17:23.940Z,7.97
2023-02-03T21:19:51.687Z,7.96
2023-02-03T21:22:26.227Z,7.54
2023-02-03T21:24:54.503Z,7.88
2023-02-03T21:27:32.182Z,7.66
2023-02-03T21:30:00.479Z,7.65
2023-02-03T21:32:34.486Z,7.59
2023-02-03T21:35:02.090Z,7.05
2023-02-03T21:37:35.350Z,7.19
2023-02-03T21:40:33.449Z,7.06
2023-02-03T21:43:03.186Z,6.97
2023-02-03T21:45:35.503Z,6.20
2023-02-03T21:48:23.024Z,6.54
2023-02-03T21:50:50.472Z,6.36
2023-02-03T21:53:23.128Z,6.90
2023-02-03T21:55:50.704Z,6.37
2023-02-03T21:58:20.759Z,6.85
2023-02-03T22:00:48.593Z,6.97
2023-02-03T22:03:24.450Z,6.08
2023-02-03T22:05:51.960Z,6.61
2023-02-03T22:08:22.891Z,6.75
2023-02-03T22:10:50.221Z,6.51
2023-02-03T22:13:17.663Z,6.20
2023-02-03T22:15:45.081Z,6.71
2023-02-03T22:18:12.283Z,6.81
2023-02-03T22:20:39.515Z,6.15
2023-02-03T22:23:06.988Z,6.09
2023-02-03T22:25:34.229Z,6.27
2023-02-03T22:28:01.509Z,6.09
2023-02-03T22:30:29.387Z,6.12
2023-02-03T22:32:58.005Z,6.29
2023-02-03T22:35:25.635Z,6.20
2023-02-03T22:37:53.910Z,6.23
2023-02-03T22:40:21.295Z,6.37
2023-02-03T22:42:48.617Z,6.67
2023-02-03T22:45:16.281Z,6.72
2023-02-03T22:47:43.473Z,6.44
2023-02-03T22:50:11.081Z,5.87
2023-02-03T22:52:38.529Z,5.83
2023-02-03T22:55:06.435Z,6.33
2023-02-03T22:57:33.646Z,6.32
2023-02-03T23:00:01.277Z,6.39
2023-02-03T23:02:28.556Z,6.36
2023-02-03T23:04:55.758Z,6.68
2023-02-03T23:07:23.396Z,6.67
2023-02-03T23:09:50.577Z,6.28
2023-02-03T23:12:17.718Z,6.31
2023-02-03T23:14:45.275Z,6.90
2023-02-03T23:17:12.608Z,6.88
2023-02-03T23:19:39.745Z,6.46
2023-02-03T23:22:07.163Z,6.52
2023-02-03T23:24:34.381Z,6.11
2023-02-03T23:27:01.556Z,6.65
2023-02-03T23:29:28.962Z,6.59
2023-02-03T23:31:56.138Z,6.28
2023-02-03T23:34:41.685Z,6.25
2023-02-03T23:37:09.113Z,6.37
2023-02-03T23:39:36.296Z,6.64
2023-02-03T23:42:03.418Z,6.35
2023-02-03T23:44:30.876Z,6.03
2023-02-03T23:46:58.042Z,6.38
2023-02-03T23:49:25.201Z,6.46
2023-02-03T23:51:52.611Z,6.49
2023-02-03T23:54:19.780Z,6.39
2023-02-03T23:56:46.943Z,6.74
2023-02-03T23:59:14.365Z,6.84
